Time;durP1;ratioP1;P1;durP2;ratioP2;P2;SDS_P1;SDS_P2;PMS_P1;PMS_P2;Temp;Humidity;BMP_temperature;BMP_pressure;BME280_temperature;BME280_humidity;BME280_pressure;Samples;Min_cycle;Max_cycle;Signal;HPM_P1;HPM_P2
2022/04/03 00:00:41;;;;;;;1.83;1.60;;;;;;;;;;5064470;28;20072;-61
2022/04/03 00:03:08;;;;;;;2.10;1.30;;;;;;;;;;5065462;28;20059;-61
2022/04/03 00:05:38;;;;;;;3.08;1.63;;;;;;;;;;5071872;28;20044;-61
2022/04/03 00:08:04;;;;;;;2.42;1.17;;;;;;;;;;5067564;28;20052;-61
2022/04/03 00:10:30;;;;;;;4.38;1.48;;;;;;;;;;5073245;28;20070;-61
2022/04/03 00:12:56;;;;;;;4.57;1.50;;;;;;;;;;5069508;28;20068;-61
2022/04/03 00:15:22;;;;;;;4.07;1.92;;;;;;;;;;5071887;28;20062;-61
2022/04/03 00:17:48;;;;;;;2.75;1.60;;;;;;;;;;5069496;28;20044;-61
2022/04/03 00:20:16;;;;;;;2.78;1.80;;;;;;;;;;5071860;28;20045;-61
2022/04/03 00:22:47;;;;;;;2.63;1.60;;;;;;;;;;5071147;28;20119;-61
2022/04/03 00:25:14;;;;;;;4.72;1.85;;;;;;;;;;5068897;28;20542;-61
2022/04/03 00:27:40;;;;;;;3.22;1.77;;;;;;;;;;5072833;28;20037;-61
2022/04/03 00:30:09;;;;;;;2.88;1.70;;;;;;;;;;5071722;28;20072;-61
2022/04/03 00:32:35;;;;;;;2.20;1.80;;;;;;;;;;5071612;28;20406;-62
2022/04/03 00:35:01;;;;;;;4.30;1.85;;;;;;;;;;5071375;28;20040;-62
2022/04/03 00:37:28;;;;;;;3.25;2.17;;;;;;;;;;5070792;28;20395;-62
2022/04/03 00:39:54;;;;;;;2.97;1.88;;;;;;;;;;5066338;28;20516;-62
2022/04/03 00:42:20;;;;;;;3.03;1.90;;;;;;;;;;5070403;28;20044;-62
2022/04/03 00:44:46;;;;;;;4.05;2.00;;;;;;;;;;5067942;28;20072;-61
2022/04/03 00:47:12;;;;;;;5.05;2.20;;;;;;;;;;5071953;28;20228;-61
2022/04/03 00:49:39;;;;;;;3.95;2.00;;;;;;;;;;5068691;28;20086;-61
2022/04/03 00:52:05;;;;;;;6.57;1.90;;;;;;;;;;5072303;28;20045;-62
2022/04/03 00:54:31;;;;;;;4.50;1.90;;;;;;;;;;5070290;28;20025;-62
2022/04/03 00:56:57;;;;;;;2.15;1.63;;;;;;;;;;5072536;28;20056;-62
2022/04/03 00:59:23;;;;;;;3.40;2.38;;;;;;;;;;5072340;28;20086;-62
2022/04/03 01:01:49;;;;;;;4.40;2.20;;;;;;;;;;5068407;28;20051;-61
2022/04/03 01:04:15;;;;;;;3.75;1.95;;;;;;;;;;5070864;28;20490;-61
2022/04/03 01:06:41;;;;;;;3.25;2.22;;;;;;;;;;5069530;28;20036;-62
2022/04/03 01:09:07;;;;;;;3.30;2.17;;;;;;;;;;5071969;28;20056;-61
2022/04/03 01:11:34;;;;;;;5.65;2.22;;;;;;;;;;5067520;28;20083;-62
2022/04/03 01:14:00;;;;;;;3.20;2.25;;;;;;;;;;5070656;28;20040;-61
2022/04/03 01:16:26;;;;;;;7.47;2.42;;;;;;;;;;5071620;28;20114;-61
2022/04/03 01:18:52;;;;;;;4.50;2.47;;;;;;;;;;5069852;28;20040;-62
2022/04/03 01:21:18;;;;;;;3.72;2.20;;;;;;;;;;5068065;28;20086;-61
2022/04/03 01:23:45;;;;;;;3.05;1.90;;;;;;;;;;5070117;28;20050;-62
2022/04/03 01:26:11;;;;;;;4.68;2.28;;;;;;;;;;5071090;28;20040;-62
2022/04/03 01:28:37;;;;;;;6.13;2.20;;;;;;;;;;5072015;28;20035;-62
2022/04/03 01:31:03;;;;;;;5.90;2.70;;;;;;;;;;5071131;28;20036;-62
2022/04/03 01:33:29;;;;;;;4.97;2.70;;;;;;;;;;5057639;28;20155;-62
2022/04/03 01:35:55;;;;;;;4.72;2.40;;;;;;;;;;5066516;28;20048;-61
2022/04/03 01:38:21;;;;;;;8.55;3.38;;;;;;;;;;5064983;28;20051;-61
2022/04/03 01:40:47;;;;;;;8.38;2.47;;;;;;;;;;5057245;28;20064;-62
2022/04/03 01:43:13;;;;;;;4.38;2.80;;;;;;;;;;5064377;28;20529;-62
2022/04/03 01:45:40;;;;;;;7.55;3.05;;;;;;;;;;5070038;28;20036;-61
2022/04/03 01:48:07;;;;;;;4.78;2.95;;;;;;;;;;5068419;28;20060;-61
2022/04/03 01:50:33;;;;;;;4.10;2.35;;;;;;;;;;5068639;28;20133;-61
2022/04/03 01:52:59;;;;;;;4.90;2.60;;;;;;;;;;5065871;28;20060;-61
2022/04/03 01:55:28;;;;;;;3.83;2.50;;;;;;;;;;5066939;28;20077;-61
2022/04/03 01:57:54;;;;;;;3.28;2.45;;;;;;;;;;5071260;28;20047;-62
2022/04/03 02:00:21;;;;;;;3.45;2.25;;;;;;;;;;5065895;28;20044;-62
2022/04/03 02:02:48;;;;;;;3.17;2.30;;;;;;;;;;5068609;28;20032;-61
2022/04/03 02:05:14;;;;;;;3.88;2.42;;;;;;;;;;5068842;28;20623;-62
2022/04/03 02:07:40;;;;;;;4.78;2.38;;;;;;;;;;5064812;28;20040;-62
2022/04/03 02:10:09;;;;;;;4.20;2.80;;;;;;;;;;5067281;28;20414;-62
2022/04/03 02:12:37;;;;;;;5.43;2.28;;;;;;;;;;5068150;28;20033;-61
2022/04/03 02:15:05;;;;;;;5.03;2.70;;;;;;;;;;5064599;28;20036;-62
2022/04/03 02:17:31;;;;;;;3.83;2.55;;;;;;;;;;5063908;28;20041;-62
2022/04/03 02:19:57;;;;;;;5.85;2.70;;;;;;;;;;5068553;28;20406;-62
2022/04/03 02:22:23;;;;;;;6.03;3.03;;;;;;;;;;5068557;28;20036;-62
2022/04/03 02:24:49;;;;;;;7.93;3.03;;;;;;;;;;5068750;28;20044;-62
2022/04/03 02:27:16;;;;;;;5.85;3.28;;;;;;;;;;5069107;28;20033;-61
2022/04/03 02:29:42;;;;;;;6.43;3.40;;;;;;;;;;5070647;28;20441;-61
2022/04/03 02:32:08;;;;;;;5.53;3.47;;;;;;;;;;5070430;28;20076;-61
2022/04/03 02:34:34;;;;;;;5.90;2.67;;;;;;;;;;5068847;28;20413;-61
2022/04/03 02:37:00;;;;;;;6.85;3.05;;;;;;;;;;5065995;28;20043;-62
2022/04/03 02:39:26;;;;;;;6.75;3.25;;;;;;;;;;5066443;28;20041;-61
2022/04/03 02:41:52;;;;;;;3.38;2.70;;;;;;;;;;5068337;28;20063;-61
2022/04/03 02:44:18;;;;;;;4.38;2.97;;;;;;;;;;5067891;28;20040;-62
2022/04/03 02:46:44;;;;;;;4.68;3.08;;;;;;;;;;5067258;28;20040;-61
2022/04/03 02:49:10;;;;;;;4.47;2.80;;;;;;;;;;5068049;28;20458;-61
2022/04/03 02:51:36;;;;;;;5.15;3.25;;;;;;;;;;5065854;28;20128;-62
2022/04/03 02:54:03;;;;;;;4.55;2.72;;;;;;;;;;5069915;28;20376;-62
2022/04/03 02:56:28;;;;;;;4.95;2.70;;;;;;;;;;5067339;28;20071;-62
2022/04/03 02:58:55;;;;;;;3.70;2.83;;;;;;;;;;5066667;28;20089;-61
2022/04/03 03:01:22;;;;;;;5.60;2.80;;;;;;;;;;5065436;28;20052;-62
2022/04/03 03:03:48;;;;;;;5.60;2.90;;;;;;;;;;5069190;28;20052;-61
2022/04/03 03:06:14;;;;;;;4.63;2.85;;;;;;;;;;5068602;28;20119;-62
2022/04/03 03:08:41;;;;;;;5.07;3.10;;;;;;;;;;5066253;28;20483;-61
2022/04/03 03:11:07;;;;;;;5.57;2.80;;;;;;;;;;5063987;28;20146;-62
2022/04/03 03:13:33;;;;;;;9.63;3.35;;;;;;;;;;5069733;28;20116;-61
2022/04/03 03:15:59;;;;;;;6.82;2.80;;;;;;;;;;5051011;28;20040;-61
2022/04/03 03:18:25;;;;;;;5.70;2.65;;;;;;;;;;5066204;28;20040;-62
2022/04/03 03:20:51;;;;;;;5.88;2.70;;;;;;;;;;5065862;28;20059;-62
2022/04/03 03:23:18;;;;;;;4.53;3.10;;;;;;;;;;5068256;28;20028;-61
2022/04/03 03:25:45;;;;;;;3.88;2.72;;;;;;;;;;5067650;28;20029;-61
2022/04/03 03:28:11;;;;;;;4.32;2.80;;;;;;;;;;5064668;28;20057;-61
2022/04/03 03:30:38;;;;;;;3.70;2.90;;;;;;;;;;5063920;28;20044;-61
2022/04/03 03:33:05;;;;;;;4.07;2.60;;;;;;;;;;5069080;28;20040;-61
2022/04/03 03:35:31;;;;;;;8.65;2.83;;;;;;;;;;5054663;28;20052;-61
2022/04/03 03:37:57;;;;;;;5.50;3.03;;;;;;;;;;5072818;28;20036;-61
2022/04/03 03:40:23;;;;;;;4.43;2.80;;;;;;;;;;5067064;28;20044;-62
2022/04/03 03:42:49;;;;;;;3.85;2.42;;;;;;;;;;5066955;28;20083;-62
2022/04/03 03:45:16;;;;;;;4.60;2.80;;;;;;;;;;5069398;28;20153;-62
2022/04/03 03:47:46;;;;;;;3.28;2.25;;;;;;;;;;5059040;28;20070;-62
2022/04/03 03:50:12;;;;;;;3.95;2.63;;;;;;;;;;5064982;28;20041;-61
2022/04/03 03:52:38;;;;;;;3.10;2.20;;;;;;;;;;5063209;28;20036;-61
2022/04/03 03:55:05;;;;;;;2.97;2.35;;;;;;;;;;5062278;28;20044;-62
2022/04/03 03:57:31;;;;;;;3.65;2.00;;;;;;;;;;5064266;28;20399;-61
2022/04/03 03:59:57;;;;;;;3.17;2.10;;;;;;;;;;5066114;28;20490;-61
2022/04/03 04:02:23;;;;;;;3.85;1.98;;;;;;;;;;5062756;28;20040;-61
2022/04/03 04:04:49;;;;;;;5.60;1.83;;;;;;;;;;5062591;28;20482;-62
2022/04/03 04:07:15;;;;;;;3.72;2.00;;;;;;;;;;5063912;28;20036;-61
2022/04/03 04:09:41;;;;;;;1.83;1.60;;;;;;;;;;5060135;28;20053;-61
2022/04/03 04:12:09;;;;;;;4.75;2.28;;;;;;;;;;5064287;28;20076;-62
2022/04/03 04:14:35;;;;;;;4.93;2.00;;;;;;;;;;5062907;28;20040;-61
2022/04/03 04:17:01;;;;;;;3.88;2.00;;;;;;;;;;5063439;28;20143;-62
2022/04/03 04:19:28;;;;;;;5.05;1.95;;;;;;;;;;5068188;28;20119;-62
2022/04/03 04:21:54;;;;;;;5.18;2.00;;;;;;;;;;5066824;28;20592;-62
2022/04/03 04:24:20;;;;;;;4.78;2.13;;;;;;;;;;5063293;28;20033;-62
2022/04/03 04:26:46;;;;;;;5.53;2.10;;;;;;;;;;5062212;28;20090;-62
2022/04/03 04:29:12;;;;;;;3.13;1.67;;;;;;;;;;5062160;28;20049;-62
2022/04/03 04:31:38;;;;;;;2.60;2.00;;;;;;;;;;5062933;28;20033;-62
2022/04/03 04:34:04;;;;;;;4.32;2.28;;;;;;;;;;5063985;28;20089;-62
2022/04/03 04:36:30;;;;;;;3.55;2.10;;;;;;;;;;5061919;28;20036;-62
2022/04/03 04:38:57;;;;;;;6.25;2.17;;;;;;;;;;5063558;28;20036;-61
2022/04/03 04:41:24;;;;;;;2.00;1.63;;;;;;;;;;5065207;28;20094;-61
2022/04/03 04:43:50;;;;;;;4.28;2.03;;;;;;;;;;5071307;28;20174;-62
2022/04/03 04:46:16;;;;;;;3.45;2.22;;;;;;;;;;5067846;28;20037;-61
2022/04/03 04:48:42;;;;;;;5.03;1.95;;;;;;;;;;5071189;28;20032;-62
2022/04/03 04:51:09;;;;;;;3.85;1.98;;;;;;;;;;5070706;28;20482;-62
2022/04/03 04:53:35;;;;;;;4.35;2.20;;;;;;;;;;5070928;28;20047;-62
2022/04/03 04:56:01;;;;;;;5.28;1.90;;;;;;;;;;5065777;28;20517;-62
2022/04/03 04:58:28;;;;;;;3.35;1.80;;;;;;;;;;5070271;28;20084;-62
2022/04/03 05:00:54;;;;;;;2.65;1.88;;;;;;;;;;5059929;28;20053;-62
2022/04/03 05:03:20;;;;;;;2.25;1.95;;;;;;;;;;5070182;28;20044;-61
2022/04/03 05:05:47;;;;;;;5.15;1.90;;;;;;;;;;5068517;28;20048;-62
2022/04/03 05:08:13;;;;;;;3.65;1.80;;;;;;;;;;5073628;28;20032;-61
2022/04/03 05:10:39;;;;;;;2.53;1.70;;;;;;;;;;5067402;28;20032;-62
2022/04/03 05:13:09;;;;;;;3.42;1.98;;;;;;;;;;5060954;28;20571;-61
2022/04/03 05:15:35;;;;;;;2.45;1.83;;;;;;;;;;5063010;28;20683;-62
2022/04/03 05:18:01;;;;;;;3.88;1.90;;;;;;;;;;5061254;28;20044;-61
2022/04/03 05:20:28;;;;;;;4.15;1.60;;;;;;;;;;5063649;28;20064;-61
2022/04/03 05:22:54;;;;;;;2.83;1.80;;;;;;;;;;5055352;28;20044;-62
2022/04/03 05:25:20;;;;;;;4.25;1.83;;;;;;;;;;5064522;28;20039;-61
2022/04/03 05:27:46;;;;;;;3.30;1.83;;;;;;;;;;5060435;28;20036;-61
2022/04/03 05:30:13;;;;;;;3.15;1.90;;;;;;;;;;5060577;28;20041;-61
2022/04/03 05:32:39;;;;;;;2.80;1.80;;;;;;;;;;5072108;28;20497;-62
2022/04/03 05:35:06;;;;;;;5.25;1.75;;;;;;;;;;5065633;28;20116;-61
2022/04/03 05:37:32;;;;;;;3.05;1.80;;;;;;;;;;5068245;28;20043;-62
2022/04/03 05:39:58;;;;;;;5.18;1.70;;;;;;;;;;5070653;28;20486;-61
2022/04/03 05:42:24;;;;;;;2.88;1.60;;;;;;;;;;5055581;28;20166;-63
2022/04/03 05:44:50;;;;;;;5.13;3.05;;;;;;;;;;5063922;28;20052;-62
2022/04/03 05:47:17;;;;;;;1.80;1.55;;;;;;;;;;5070610;28;20036;-64
2022/04/03 05:49:43;;;;;;;1.83;1.40;;;;;;;;;;5100298;28;20067;-63
2022/04/03 05:52:09;;;;;;;4.68;1.50;;;;;;;;;;5070243;28;20479;-63
2022/04/03 05:54:35;;;;;;;2.58;1.52;;;;;;;;;;5069207;28;20050;-63
2022/04/03 05:57:01;;;;;;;2.17;1.50;;;;;;;;;;5069314;28;20394;-63
2022/04/03 05:59:27;;;;;;;3.08;1.67;;;;;;;;;;5066324;28;20040;-63
2022/04/03 06:01:53;;;;;;;4.60;1.85;;;;;;;;;;5070921;28;20105;-63
2022/04/03 06:04:19;;;;;;;3.17;1.58;;;;;;;;;;5066258;28;20071;-62
2022/04/03 06:06:45;;;;;;;7.25;1.70;;;;;;;;;;5071069;28;20071;-62
2022/04/03 06:09:11;;;;;;;3.63;1.67;;;;;;;;;;5067338;28;20032;-63
2022/04/03 06:11:37;;;;;;;2.53;1.55;;;;;;;;;;5068758;28;20051;-63
2022/04/03 06:14:03;;;;;;;2.83;1.70;;;;;;;;;;5070587;28;20044;-63
2022/04/03 06:16:29;;;;;;;2.33;1.92;;;;;;;;;;5065921;28;20044;-62
2022/04/03 06:18:55;;;;;;;3.40;1.40;;;;;;;;;;5069895;28;20135;-63
2022/04/03 06:21:22;;;;;;;5.30;1.90;;;;;;;;;;5068865;28;20080;-63
2022/04/03 06:23:48;;;;;;;4.57;1.67;;;;;;;;;;5067325;28;20032;-63
2022/04/03 06:26:14;;;;;;;3.53;1.80;;;;;;;;;;5068678;28;20033;-63
2022/04/03 06:28:40;;;;;;;2.50;1.67;;;;;;;;;;5066484;28;20036;-63
2022/04/03 06:31:06;;;;;;;3.20;1.70;;;;;;;;;;5069842;28;20032;-63
2022/04/03 06:33:32;;;;;;;4.85;1.73;;;;;;;;;;5070737;28;20082;-62
2022/04/03 06:36:00;;;;;;;2.90;2.00;;;;;;;;;;5069012;28;20040;-63
2022/04/03 06:38:26;;;;;;;4.68;1.83;;;;;;;;;;5067327;28;20331;-63
2022/04/03 06:40:54;;;;;;;3.75;1.67;;;;;;;;;;5068391;28;20114;-63
2022/04/03 06:43:30;;;;;;;3.42;2.17;;;;;;;;;;5069084;28;20047;-63
2022/04/03 06:45:57;;;;;;;5.47;1.90;;;;;;;;;;5071386;28;20032;-63
2022/04/03 06:48:24;;;;;;;2.55;1.60;;;;;;;;;;5069277;28;20033;-62
2022/04/03 06:50:50;;;;;;;3.65;1.85;;;;;;;;;;5068695;28;20428;-62
2022/04/03 06:53:16;;;;;;;4.50;2.00;;;;;;;;;;5069525;28;20472;-63
2022/04/03 06:55:42;;;;;;;4.50;2.22;;;;;;;;;;5068818;28;20047;-63
2022/04/03 06:58:08;;;;;;;6.40;2.45;;;;;;;;;;5067385;28;20063;-63
2022/04/03 07:00:37;;;;;;;2.92;1.88;;;;;;;;;;5071277;28;20040;-63
2022/04/03 07:03:04;;;;;;;3.15;1.60;;;;;;;;;;5070096;28;20831;-63
2022/04/03 07:05:30;;;;;;;2.45;1.58;;;;;;;;;;5068395;28;20172;-63
2022/04/03 07:07:55;;;;;;;3.65;1.67;;;;;;;;;;5070035;28;20040;-62
2022/04/03 07:10:22;;;;;;;3.90;1.70;;;;;;;;;;5068630;28;20040;-63
2022/04/03 07:12:48;;;;;;;3.70;2.50;;;;;;;;;;5069810;28;20076;-64
2022/04/03 07:15:14;;;;;;;5.40;1.63;;;;;;;;;;5067427;28;20040;-63
2022/04/03 07:17:41;;;;;;;3.67;1.70;;;;;;;;;;5070270;28;20072;-62
2022/04/03 07:20:07;;;;;;;4.47;1.63;;;;;;;;;;5066063;28;20719;-63
2022/04/03 07:22:33;;;;;;;2.05;1.52;;;;;;;;;;5068743;28;20132;-63
2022/04/03 07:24:59;;;;;;;4.00;1.00;;;;;;;;;;5070863;28;20115;-63
2022/04/03 07:27:27;;;;;;;5.35;1.15;;;;;;;;;;5068864;28;20093;-63
2022/04/03 07:29:53;;;;;;;3.75;1.63;;;;;;;;;;5066436;28;20120;-63
2022/04/03 07:32:19;;;;;;;3.10;2.28;;;;;;;;;;5067062;28;20379;-63
2022/04/03 07:34:45;;;;;;;6.40;2.97;;;;;;;;;;5067338;28;20487;-62
2022/04/03 07:37:11;;;;;;;3.13;2.47;;;;;;;;;;5069263;28;20386;-63
2022/04/03 07:39:38;;;;;;;2.83;1.30;;;;;;;;;;5069386;28;20036;-63
2022/04/03 07:42:04;;;;;;;3.83;1.58;;;;;;;;;;5066535;28;20102;-62
2022/04/03 07:44:30;;;;;;;5.28;1.95;;;;;;;;;;5069671;28;20051;-62
2022/04/03 07:46:56;;;;;;;3.88;1.10;;;;;;;;;;5068285;28;20609;-63
2022/04/03 07:49:22;;;;;;;3.85;0.90;;;;;;;;;;5070039;28;20040;-62
2022/04/03 07:51:48;;;;;;;2.60;1.00;;;;;;;;;;5066154;28;20470;-63
2022/04/03 07:54:14;;;;;;;4.03;1.30;;;;;;;;;;5067840;28;20036;-63
2022/04/03 07:56:41;;;;;;;2.92;2.25;;;;;;;;;;5068267;28;20078;-63
2022/04/03 07:59:07;;;;;;;2.05;1.10;;;;;;;;;;5069625;28;20521;-62
2022/04/03 08:01:35;;;;;;;5.03;4.20;;;;;;;;;;5069485;28;20080;-62
2022/04/03 08:04:02;;;;;;;2.67;0.95;;;;;;;;;;5069360;28;20047;-63
2022/04/03 08:06:28;;;;;;;3.08;0.90;;;;;;;;;;5069315;28;20490;-63
2022/04/03 08:08:54;;;;;;;6.93;1.98;;;;;;;;;;5068598;28;20111;-63
2022/04/03 08:11:20;;;;;;;7.18;4.40;;;;;;;;;;5067739;28;20043;-62
2022/04/03 08:13:47;;;;;;;2.47;0.82;;;;;;;;;;5069607;28;20086;-63
2022/04/03 08:16:14;;;;;;;4.40;1.27;;;;;;;;;;5065290;28;20491;-63
2022/04/03 08:18:39;;;;;;;1.77;0.85;;;;;;;;;;5073089;28;20059;-62
2022/04/03 08:21:06;;;;;;;1.80;0.60;;;;;;;;;;5069938;28;20044;-63
2022/04/03 08:23:32;;;;;;;3.15;0.70;;;;;;;;;;5071726;28;20028;-63
2022/04/03 08:25:58;;;;;;;3.45;0.70;;;;;;;;;;5071902;28;20086;-63
2022/04/03 08:28:24;;;;;;;4.15;0.80;;;;;;;;;;5073670;28;20033;-63
2022/04/03 08:30:50;;;;;;;1.65;1.00;;;;;;;;;;5073509;28;20182;-63
2022/04/03 08:33:16;;;;;;;2.90;1.13;;;;;;;;;;5073596;28;20044;-63
2022/04/03 08:35:42;;;;;;;4.78;1.00;;;;;;;;;;5071816;28;20086;-63
2022/04/03 08:38:08;;;;;;;2.00;0.85;;;;;;;;;;5073140;28;20138;-63
2022/04/03 08:40:35;;;;;;;3.13;1.13;;;;;;;;;;5071795;28;20079;-63
2022/04/03 08:43:02;;;;;;;3.13;0.65;;;7.50;99.90;;;;;;5072691;28;20053;-63
2022/04/03 08:45:29;;;;;;;2.78;0.82;;;;;;;;;;5073130;28;20039;-63
2022/04/03 08:48:00;;;;;;;2.25;0.70;;;;;;;;;;5073278;28;20032;-63
2022/04/03 08:50:28;;;;;;;6.05;1.00;;;;;;;;;;5073073;28;20040;-63
2022/04/03 08:52:54;;;;;;;4.85;1.13;;;;;;;;;;5073181;28;20048;-62
2022/04/03 08:55:21;;;;;;;3.65;0.90;;;;;;;;;;5072643;28;20044;-63
2022/04/03 08:57:47;;;;;;;4.13;0.75;;;;;;;;;;5073254;28;20128;-63
2022/04/03 09:00:14;;;;;;;2.53;0.57;;;;;;;;;;5072544;28;20056;-63
2022/04/03 09:02:40;;;;;;;2.67;0.70;;;;;;;;;;5072641;28;20036;-63
2022/04/03 09:05:06;;;;;;;2.10;0.60;;;;;;;;;;5072660;28;20576;-63
2022/04/03 09:07:32;;;;;;;3.85;0.60;;;;;;;;;;5072966;28;20098;-63
2022/04/03 09:10:00;;;;;;;4.10;1.23;;;;;;;;;;5073137;28;20050;-63
2022/04/03 09:12:26;;;;;;;2.50;0.70;;;;;;;;;;5072514;28;20044;-63
2022/04/03 09:14:56;;;;;;;2.17;0.63;;;;;;;;;;5072544;28;20063;-63
2022/04/03 09:17:34;;;;;;;1.05;0.70;;;;;;;;;;5072231;28;20051;-63
2022/04/03 09:20:03;;;;;;;2.63;0.80;;;;;;;;;;5072291;28;20445;-63
2022/04/03 09:22:29;;;;;;;1.70;1.10;;;;;;;;;;5072424;28;20115;-64
2022/04/03 09:24:55;;;;;;;2.05;0.80;;;;;;;;;;5072433;28;20047;-63
2022/04/03 09:27:21;;;;;;;2.75;0.60;;;;;;;;;;5072314;28;20368;-63
2022/04/03 09:29:47;;;;;;;0.60;0.60;;;;;;;;;;5071352;28;20044;-63
2022/04/03 09:32:15;;;;;;;2.03;0.73;;;;;;;;;;5072269;28;20052;-64
2022/04/03 09:34:43;;;;;;;3.10;0.70;;;;;;;;;;5072446;28;20037;-64
2022/04/03 09:37:09;;;;;;;4.10;1.38;;;;;;;;;;5072393;28;20402;-63
2022/04/03 09:39:35;;;;;;;2.63;0.68;;;;;;;;;;5071808;28;20051;-63
2022/04/03 09:42:02;;;;;;;0.70;0.60;;;;;;;;;;5071831;28;20144;-62
2022/04/03 09:44:31;;;;;;;2.58;0.70;;;8.00;99.90;;;;;;5071837;28;20040;-63
2022/04/03 09:47:13;;;;;;;1.30;0.60;;;;;;;;;;5071787;28;20046;-63
2022/04/03 09:49:39;;;;;;;3.30;1.00;;;;;;;;;;5071662;28;20513;-62
2022/04/03 09:52:05;;;;;;;6.63;1.23;;;;;;;;;;5071915;28;20479;-63
2022/04/03 09:54:31;;;;;;;0.75;0.40;;;;;;;;;;5071595;28;20072;-63
2022/04/03 09:57:18;;;;;;;4.75;0.52;;;8.00;99.90;;;;;;5071890;28;20090;-63
2022/04/03 09:59:49;;;;;;;1.30;0.60;;;;;;;;;;5071404;28;20028;-63
2022/04/03 10:02:15;;;;;;;1.90;0.55;;;;;;;;;;5072071;28;20040;-63
2022/04/03 10:04:41;;;;;;;1.88;0.50;;;;;;;;;;5071586;28;20105;-63
2022/04/03 10:07:08;;;;;;;1.75;0.40;;;;;;;;;;5070439;28;20387;-63
2022/04/03 10:09:34;;;;;;;0.63;0.50;;;10.10;99.90;;;;;;5069972;28;20055;-64
2022/04/03 10:12:00;;;;;;;3.13;0.60;;;;;;;;;;5071706;28;20040;-63
2022/04/03 10:14:27;;;;;;;2.22;0.60;;;10.70;99.90;;;;;;5069817;28;20309;-64
2022/04/03 10:16:53;;;;;;;2.40;0.50;;;;;;;;;;5071580;28;20451;-63
2022/04/03 10:19:19;;;;;;;4.55;0.50;;;;;;;;;;5070405;28;20506;-63
2022/04/03 10:21:52;;;;;;;0.93;0.30;;;11.40;99.90;;;;;;5071310;28;20052;-63
2022/04/03 10:24:21;;;;;;;;;;;11.80;99.90;;;;;;5071685;28;20083;-63
2022/04/03 10:26:51;;;;;;;1.70;0.50;;;;;;;;;;5071185;28;19928;-63
2022/04/03 10:29:17;;;;;;;1.55;0.50;;;;;;;;;;5071203;28;20037;-64
2022/04/03 10:32:04;;;;;;;1.25;0.55;;;12.80;99.90;;;;;;5070922;28;20174;-63
2022/04/03 10:34:43;;;;;;;0.82;0.38;;;12.20;99.90;;;;;;5070628;28;20401;-63
2022/04/03 10:37:23;;;;;;;1.48;0.45;;;11.20;99.90;;;;;;5071344;28;20044;-64
2022/04/03 10:39:53;;;;;;;0.77;0.43;;;11.40;99.90;;;;;;5070434;28;20091;-63
2022/04/03 10:42:25;;;;;;;1.30;0.50;;;11.80;99.90;;;;;;5069875;28;20048;-64
2022/04/03 10:45:09;;;;;;;1.92;0.65;;;;;;;;;;5070902;28;20052;-63
2022/04/03 10:47:35;;;;;;;0.55;0.30;;;;;;;;;;5071066;28;20498;-64
2022/04/03 10:50:03;;;;;;;2.60;0.40;;;;;;;;;;5070863;28;20429;-63
2022/04/03 10:52:38;;;;;;;1.00;0.50;;;;;;;;;;5070806;28;20107;-63
2022/04/03 10:55:11;;;;;;;0.95;0.47;;;;;;;;;;5070841;28;20510;-63
2022/04/03 10:57:43;;;;;;;0.80;0.40;;;;;;;;;;5070484;28;20119;-63
2022/04/03 11:00:12;;;;;;;0.95;0.40;;;;;;;;;;5070567;28;20042;-64
2022/04/03 11:02:39;;;;;;;1.35;0.50;;;;;;;;;;5070795;28;20402;-64
2022/04/03 11:05:23;;;;;;;0.98;0.30;;;;;;;;;;5070435;28;20040;-63
2022/04/03 11:07:50;;;;;;;0.95;0.50;;;12.30;99.90;;;;;;5070255;28;20497;-63
2022/04/03 11:10:37;;;;;;;2.35;0.60;;;;;;;;;;5069233;28;20044;-64
2022/04/03 11:13:08;;;;;;;2.90;0.68;;;;;;;;;;5070214;28;20123;-64
2022/04/03 11:15:46;;;;;;;0.95;0.40;;;;;;;;;;5070400;28;20502;-63
2022/04/03 11:18:30;;;;;;;2.78;0.40;;;;;;;;;;5070155;28;20037;-63
2022/04/03 11:21:09;;;;;;;3.92;0.50;;;;;;;;;;5070548;28;20131;-63
2022/04/03 11:24:10;;;;;;;0.40;0.40;;;10.80;99.90;;;;;;5070620;28;20036;-64
2022/04/03 11:26:37;;;;;;;2.15;0.50;;;10.80;99.90;;;;;;5027894;28;20060;-64
2022/04/03 11:29:04;;;;;;;1.85;0.40;;;;;;;;;;5027943;28;20041;-64
2022/04/03 11:31:30;;;;;;;1.67;0.40;;;10.00;99.90;;;;;;5028195;28;20132;-63
2022/04/03 11:33:59;;;;;;;0.50;0.30;;;;;;;;;;5027971;28;20045;-64
2022/04/03 11:36:27;;;;;;;2.40;0.40;;;9.80;99.90;;;;;;5011646;28;20037;-63
2022/04/03 11:38:53;;;;;;;1.80;0.50;;;;;;;;;;5027930;28;20412;-63
2022/04/03 11:41:28;;;;;;;0.40;0.40;;;9.40;99.90;;;;;;5027515;28;20061;-63
2022/04/03 11:44:00;;;;;;;1.45;0.50;;;;;;;;;;5028017;28;20046;-63
2022/04/03 11:46:30;;;;;;;5.18;0.50;;;8.80;99.90;;;;;;5028141;28;20124;-64
2022/04/03 11:48:56;;;;;;;1.48;0.50;;;;;;;;;;5027981;28;20084;-63
2022/04/03 11:51:23;;;;;;;2.00;0.40;;;;;;;;;;5027651;28;20041;-64
2022/04/03 11:53:59;;;;;;;1.05;0.47;;;8.90;99.90;;;;;;5031618;28;20083;-63
2022/04/03 11:56:29;;;;;;;1.33;0.50;;;8.80;99.90;;;;;;5031905;28;20496;-63
2022/04/03 11:58:59;;;;;;;0.93;0.43;;;8.80;99.90;;;;;;5031681;28;20037;-63
2022/04/03 12:01:28;;;;;;;0.65;0.40;;;8.60;99.90;;;;;;5031505;28;20045;-63
2022/04/03 12:04:12;;;;;;;1.38;0.40;;;;;;;;;;5058082;28;20074;-64
2022/04/03 12:06:39;;;;;;;1.58;0.40;;;8.50;99.90;;;;;;5074326;28;20038;-63
2022/04/03 12:09:09;;;;;;;1.20;0.50;;;;;;;;;;5073728;28;20142;-64
2022/04/03 12:11:36;;;;;;;1.35;0.68;;;;;;;;;;5073979;28;20041;-63
2022/04/03 12:14:03;;;;;;;1.50;0.57;;;;;;;;;;5073765;28;20128;-64
2022/04/03 12:16:32;;;;;;;0.98;0.50;;;;;;;;;;5073560;28;20036;-63
2022/04/03 12:19:06;;;;;;;1.88;0.50;;;8.40;99.90;;;;;;5073623;28;20040;-62
2022/04/03 12:21:39;;;;;;;1.17;0.50;;;;;;;;;;5072338;28;20075;-63
2022/04/03 12:24:06;;;;;;;1.60;0.63;;;;;;;;;;5073509;28;20037;-63
2022/04/03 12:26:33;;;;;;;1.25;0.40;;;;;;;;;;5073700;28;20479;-63
2022/04/03 12:28:59;;;;;;;3.58;0.63;;;;;;;;;;5072386;28;20070;-62
2022/04/03 12:31:26;;;;;;;2.20;0.50;;;;;;;;;;5073039;28;20032;-64
2022/04/03 12:34:03;;;;;;;2.35;0.60;;;;;;;;;;5073616;28;20455;-63
2022/04/03 12:36:35;;;;;;;2.10;0.60;;;;;;;;;;5073448;28;20054;-63
2022/04/03 12:39:01;;;;;;;;;;;8.70;99.90;;;;;;5073839;28;20045;-62
2022/04/03 12:41:27;;;;;;;2.78;0.65;;;;;;;;;;5072652;28;19920;-63
2022/04/03 12:43:56;;;;;;;2.90;0.77;;;8.60;99.90;;;;;;5073190;28;20087;-63
2022/04/03 12:46:22;;;;;;;2.00;0.70;;;;;;;;;;5073131;28;20085;-63
2022/04/03 12:48:51;;;;;;;1.08;0.90;;;;;;;;;;5073067;28;20036;-64
2022/04/03 12:51:17;;;;;;;1.92;0.80;;;;;;;;;;5072888;28;20079;-63
2022/04/03 12:53:51;;;;;;;2.25;1.17;;;;;;;;;;5073054;28;20037;-63
2022/04/03 12:56:17;;;;;;;3.35;0.70;;;;;;;;;;5072808;28;20052;-62
2022/04/03 12:58:48;;;;;;;2.05;0.90;;;;;;;;;;5070880;28;20117;-63
2022/04/03 13:01:16;;;;;;;1.92;0.60;;;8.40;99.90;;;;;;5073044;28;20067;-64
2022/04/03 13:03:46;;;;;;;2.05;0.63;;;;;;;;;;5072389;28;20058;-63
2022/04/03 13:06:25;;;;;;;1.08;0.70;;;;;;;;;;5072945;28;20040;-63
2022/04/03 13:08:56;;;;;;;0.70;0.70;;;;;;;;;;5073395;28;20036;-64
2022/04/03 13:11:49;;;;;;;1.65;0.60;;;8.90;99.90;;;;;;5072731;28;20044;-63
2022/04/03 13:14:15;;;;;;;2.00;0.80;;;;;;;;;;5070919;28;20088;-63
2022/04/03 13:16:41;;;;;;;3.08;0.90;;;;;;;;;;5072661;28;20040;-63
2022/04/03 13:19:08;;;;;;;1.13;0.70;;;;;;;;;;5072390;28;20068;-63
2022/04/03 13:21:35;;;;;;;1.42;0.60;;;;;;;;;;5072213;28;20090;-63
2022/04/03 13:24:02;;;;;;;1.45;0.60;;;;;;;;;;5072623;28;20045;-63
2022/04/03 13:26:28;;;;;;;4.32;0.85;;;;;;;;;;5072488;28;20051;-63
2022/04/03 13:28:54;;;;;;;2.00;0.60;;;;;;;;;;5072686;28;20442;-63
2022/04/03 13:31:20;;;;;;;3.25;0.80;;;;;;;;;;5071050;28;20040;-63
2022/04/03 13:33:46;;;;;;;2.63;0.77;;;;;;;;;;5070701;28;20079;-63
2022/04/03 13:36:12;;;;;;;2.63;0.75;;;;;;;;;;5072263;28;20457;-63
2022/04/03 13:38:38;;;;;;;2.92;0.60;;;;;;;;;;5071938;28;20094;-63
2022/04/03 13:41:04;;;;;;;1.00;0.77;;;;;;;;;;5072292;28;20044;-63
2022/04/03 13:43:30;;;;;;;1.67;0.70;;;;;;;;;;5071674;28;20452;-63
2022/04/03 13:46:00;;;;;;;1.10;0.50;;;;;;;;;;5071922;28;20393;-63
2022/04/03 13:48:32;;;;;;;1.85;0.70;;;8.00;99.90;;;;;;5071754;28;20101;-63
2022/04/03 13:50:59;;;;;;;1.38;0.80;;;8.00;99.90;;;;;;5071962;28;20055;-63
2022/04/03 13:53:26;;;;;;;0.70;0.50;;;7.90;99.90;;;;;;5071939;28;20049;-62
2022/04/03 13:55:53;;;;;;;1.30;0.70;;;;;;;;;;5071778;28;20033;-63
2022/04/03 13:58:19;;;;;;;3.13;0.80;;;;;;;;;;5071660;28;20037;-63
2022/04/03 14:00:45;;;;;;;1.42;0.70;;;;;;;;;;5071089;28;20032;-62
2022/04/03 14:03:11;;;;;;;2.22;0.60;;;;;;;;;;5071748;28;20390;-63
2022/04/03 14:05:37;;;;;;;2.08;0.68;;;;;;;;;;5071452;28;20045;-62
2022/04/03 14:08:04;;;;;;;2.20;0.95;;;;;;;;;;5071571;28;20058;-63
2022/04/03 14:10:31;;;;;;;2.15;0.68;;;;;;;;;;5070113;28;20402;-63
2022/04/03 14:12:57;;;;;;;2.38;0.90;;;;;;;;;;5071245;28;20545;-63
2022/04/03 14:15:23;;;;;;;2.83;0.80;;;;;;;;;;5070831;28;20047;-63
2022/04/03 14:17:49;;;;;;;1.77;0.80;;;;;;;;;;5071125;28;20080;-63
2022/04/03 14:20:16;;;;;;;2.35;0.68;;;;;;;;;;5071469;28;20079;-63
2022/04/03 14:22:42;;;;;;;2.13;0.85;;;;;;;;;;5071010;28;20032;-63
2022/04/03 14:25:08;;;;;;;3.67;0.70;;;;;;;;;;5070337;28;20045;-63
2022/04/03 14:27:35;;;;;;;3.42;0.80;;;11.70;99.90;;;;;;5069907;28;20425;-63
2022/04/03 14:30:03;;;;;;;4.03;0.80;;;;;;;;;;5070695;28;20036;-64
2022/04/03 14:32:31;;;;;;;1.08;0.60;;;;;;;;;;5071127;28;20041;-64